Time;durP1;ratioP1;P1;durP2;ratioP2;P2;SDS_P1;SDS_P2;PMS_P1;PMS_P2;Temp;Humidity;BMP_temperature;BMP_pressure;BME280_temperature;BME280_humidity;BME280_pressure;Samples;Min_cycle;Max_cycle;Signal;HPM_P1;HPM_P2
2022/09/21 03:57:07;;;;;;;7.22;3.90;;;;;;;11.15;77.88;100945.22;5606172;31;78537;-55
2022/09/21 04:00:10;;;;;;;5.68;3.58;;;;;;;11.15;77.88;100945.22;5583324;32;33429;-56
2022/09/21 04:03:13;;;;;;;6.37;3.70;;;;;;;10.71;79.24;100947.66;5583574;31;34820;-56
2022/09/21 04:06:15;;;;;;;7.18;3.90;;;;;;;10.73;79.20;100945.50;5583698;31;33372;-56
2022/09/21 04:09:17;;;;;;;4.95;3.67;;;;;;;10.85;78.29;100948.72;5583599;31;34280;-56
2022/09/21 04:12:22;;;;;;;5.15;3.40;;;;;;;10.77;78.57;100947.38;5583321;32;33555;-57
2022/09/21 04:15:25;;;;;;;5.70;3.60;;;;;;;10.85;78.25;100953.28;5583469;31;34337;-56
2022/09/21 04:18:27;;;;;;;5.93;3.78;;;;;;;10.87;78.36;100957.31;5583180;31;33616;-56
2022/09/21 04:21:29;;;;;;;5.18;3.70;;;;;;;10.92;77.96;100967.22;5583337;31;34245;-56
2022/09/21 04:24:31;;;;;;;5.32;3.75;;;;;;;10.88;78.53;100956.22;5583228;31;33653;-56
2022/09/21 04:27:34;;;;;;;4.72;3.70;;;;;;;10.92;78.03;100959.19;5576514;32;34306;-56
2022/09/21 04:30:36;;;;;;;5.75;3.62;;;;;;;10.85;78.24;100951.41;5563840;32;33605;-56
2022/09/21 04:33:40;;;;;;;7.18;4.07;;;;;;;10.81;78.85;100958.38;5563788;32;34286;-56
2022/09/21 04:36:42;;;;;;;6.80;4.35;;;;;;;10.92;78.20;100961.88;5563376;32;33687;-56
2022/09/21 04:39:44;;;;;;;4.90;3.80;;;;;;;10.94;78.43;100957.03;5563556;32;33613;-56
2022/09/21 04:42:51;;;;;;;6.22;4.53;;;;;;;10.92;78.56;100962.66;5563512;32;34303;-56
2022/09/21 04:45:53;;;;;;;9.77;4.45;;;;;;;11.04;77.74;100973.94;5563804;32;33803;-56
2022/09/21 04:48:55;;;;;;;6.80;4.22;;;;;;;10.93;77.51;100977.72;5563485;32;33595;-56
2022/09/21 04:51:58;;;;;;;5.40;4.05;;;;;;;10.96;78.12;100974.50;5574123;32;33696;-57
2022/09/21 04:55:00;;;;;;;5.45;4.43;;;;;;;10.97;77.83;100977.97;5566046;32;33140;-56
2022/09/21 04:58:02;;;;;;;7.15;4.22;;;;;;;11.05;77.85;100990.84;5580542;31;33652;-56
2022/09/21 05:01:06;;;;;;;6.15;4.60;;;;;;;11.11;77.00;100989.78;5576582;31;33687;-55
2022/09/21 05:04:08;;;;;;;7.50;4.80;;;;;;;11.18;77.05;100995.66;5574650;32;33701;-56
2022/09/21 05:07:11;;;;;;;7.45;4.57;;;;;;;11.10;77.59;100990.84;5570925;32;33857;-56
2022/09/21 05:10:13;;;;;;;6.25;4.65;;;;;;;11.05;77.91;100996.19;5564801;32;33609;-56
2022/09/21 05:13:15;;;;;;;6.57;4.75;;;;;;;11.15;77.17;100998.88;5565283;32;33618;-56
2022/09/21 05:16:21;;;;;;;6.70;4.90;;;;;;;11.11;77.10;100983.59;5568033;32;34412;-56
2022/09/21 05:19:23;;;;;;;7.90;4.78;;;;;;;11.01;78.05;100990.56;5565337;32;33716;-56
2022/09/21 05:22:26;;;;;;;10.95;6.20;;;;;;;11.15;78.79;100988.16;5566622;32;33611;-56
2022/09/21 05:25:28;;;;;;;9.75;6.18;;;;;;;11.19;77.46;100991.94;5567009;32;33759;-56
2022/09/21 05:28:31;;;;;;;14.50;5.75;;;;;;;11.14;78.04;100996.50;5568399;32;34020;-55
2022/09/21 05:31:46;;;;;;;8.27;5.93;;;;;;;11.18;77.29;101002.91;5568495;32;34266;-56
2022/09/21 05:35:15;;;;;;;8.10;5.40;;;;;;;11.16;77.60;101005.88;5566363;32;34330;-56
2022/09/21 05:38:18;;;;;;;8.15;5.53;;;;;;;11.25;76.75;101004.25;5563427;32;33291;-56
2022/09/21 05:41:22;;;;;;;8.82;5.10;;;;;;;11.17;77.04;101010.16;5567526;32;33666;-56
2022/09/21 05:44:24;;;;;;;9.77;5.45;;;;;;;11.28;77.59;101002.91;5565685;31;33201;-56
2022/09/21 05:47:32;;;;;;;7.70;5.60;;;;;;;11.19;77.10;101001.84;5564166;32;34448;-56
2022/09/21 05:50:47;;;;;;;8.63;5.62;;;;;;;11.20;77.42;101006.16;5564820;32;33919;-56
2022/09/21 05:54:11;;;;;;;11.00;6.82;;;;;;;11.25;77.33;101001.56;5568538;32;34012;-56
2022/09/21 05:57:24;;;;;;;10.43;6.43;;;;;;;11.48;76.66;101002.87;5564402;32;33591;-56
2022/09/21 06:00:45;;;;;;;13.02;6.35;;;;;;;11.60;76.44;100997.25;5566888;32;33852;-56
2022/09/21 06:03:48;;;;;;;8.40;6.65;;;;;;;11.66;75.86;101006.91;5567305;32;34381;-56
2022/09/21 06:06:51;;;;;;;10.05;6.40;;;;;;;11.63;75.24;101012.00;5566888;32;33009;-56
2022/09/21 06:09:53;;;;;;;8.40;6.18;;;;;;;11.57;76.41;101013.09;5567375;32;33194;-56
2022/09/21 06:12:56;;;;;;;8.77;6.25;;;;;;;11.57;76.74;101019.28;5567323;32;33969;-56
2022/09/21 06:16:02;;;;;;;12.60;5.90;;;;;;;11.51;77.23;101014.97;5567895;32;33611;-56
2022/09/21 06:19:05;;;;;;;7.12;5.57;;;;;;;11.58;77.76;101018.19;5561695;32;33269;-55
2022/09/21 06:22:07;;;;;;;6.78;5.15;;;;;;;11.66;77.05;101019.53;5563206;32;33633;-56
2022/09/21 06:25:09;;;;;;;8.52;6.45;;;;;;;11.67;76.61;101021.13;5566191;32;33611;-56
2022/09/21 06:28:12;;;;;;;7.68;5.70;;;;;;;11.67;76.96;101030.00;5554605;32;33178;-56
2022/09/21 06:31:14;;;;;;;13.05;6.45;;;;;;;11.62;76.99;101034.56;5565306;32;33723;-56
2022/09/21 06:34:17;;;;;;;9.82;6.20;;;;;;;11.62;77.25;101035.38;5565136;32;33664;-56
2022/09/21 06:37:20;;;;;;;20.55;7.57;;;;;;;11.68;78.02;101028.91;5567002;32;33899;-56
2022/09/21 06:40:22;;;;;;;20.90;8.07;;;;;;;11.88;76.36;101024.59;5568196;32;33658;-56
2022/09/21 06:43:24;;;;;;;11.77;7.37;;;;;;;11.90;75.53;101036.69;5565434;32;33689;-56
2022/09/21 06:46:27;;;;;;;10.07;7.15;;;;;;;11.91;75.74;101038.28;5567346;32;33638;-56
2022/09/21 06:49:29;;;;;;;9.38;6.15;;;;;;;12.03;75.29;101034.50;5565871;32;34394;-56
2022/09/21 06:52:32;;;;;;;10.82;6.40;;;;;;;12.15;74.10;101038.50;5566181;32;33297;-56
2022/09/21 06:55:34;;;;;;;9.07;5.45;;;;;;;12.17;73.98;101038.22;5564893;32;34307;-56
2022/09/21 06:58:36;;;;;;;9.00;4.68;;;;;;;12.25;73.16;101039.53;5565929;32;34273;-56
2022/09/21 07:01:38;;;;;;;5.85;3.85;;;;;;;12.42;70.56;101043.50;5566595;32;33330;-56
2022/09/21 07:04:41;;;;;;;5.78;4.50;;;;;;;12.56;68.39;101041.00;5564126;31;33351;-57
2022/09/21 07:07:43;;;;;;;19.85;5.55;;;;;;;12.83;67.98;101039.78;5567637;32;34450;-56
2022/09/21 07:10:45;;;;;;;9.23;4.95;;;;;;;12.83;68.59;101031.72;5567511;32;33691;-56
2022/09/21 07:13:48;;;;;;;9.73;4.65;;;;;;;12.87;70.96;101035.44;5565731;32;33566;-56
2022/09/21 07:16:51;;;;;;;6.85;4.40;;;;;;;12.96;70.79;101032.97;5566139;32;33872;-56
2022/09/21 07:19:54;;;;;;;6.60;4.95;;;;;;;12.98;71.55;101036.16;5566770;32;33442;-57
2022/09/21 07:22:56;;;;;;;7.55;4.15;;;;;;;13.11;71.50;101040.91;5565353;32;33582;-56
2022/09/21 07:26:05;;;;;;;7.65;3.53;;;;;;;13.22;70.58;101042.47;5565540;32;33184;-56
2022/09/21 07:29:07;;;;;;;4.68;3.90;;;;;;;13.27;68.99;101034.38;5563998;32;33605;-56
2022/09/21 07:32:11;;;;;;;8.35;4.22;;;;;;;13.37;69.15;101038.88;5565116;32;34218;-56
2022/09/21 07:35:14;;;;;;;5.20;3.62;;;;;;;13.62;68.16;101044.03;5563439;32;34421;-56
2022/09/21 07:38:16;;;;;;;5.93;3.53;;;;;;;13.61;67.48;101041.63;5556276;32;33721;-56
2022/09/21 07:41:19;;;;;;;5.87;3.37;;;;;;;13.77;67.50;101042.25;5562265;32;34338;-56
2022/09/21 07:44:21;;;;;;;5.50;3.62;;;;;;;13.89;66.58;101049.97;5567481;32;33352;-56
2022/09/21 07:47:24;;;;;;;5.68;3.47;;;;;;;14.03;64.89;101051.69;5565500;32;31995;-56
2022/09/21 07:50:26;;;;;;;3.55;3.03;;;;;;;13.98;65.40;101046.38;5560011;32;33715;-56
2022/09/21 07:53:30;;;;;;;3.35;2.60;;;;;;;14.01;64.89;101047.69;5564655;32;33705;-56
2022/09/21 07:56:32;;;;;;;3.08;2.55;;;;;;;14.14;60.21;101048.88;5564360;31;34495;-56
2022/09/21 07:59:36;;;;;;;4.68;2.58;;;;;;;14.19;61.38;101046.13;5565917;32;33635;-55
2022/09/21 08:02:38;;;;;;;3.00;2.55;;;;;;;14.32;60.94;101045.44;5563169;32;34012;-56
2022/09/21 08:05:47;;;;;;;4.28;2.60;;;;;;;14.40;59.85;101044.78;5563761;32;33337;-56
2022/09/21 08:08:50;;;;;;;3.08;2.60;;;;;;;14.44;58.93;101042.31;5566271;32;33356;-55
2022/09/21 08:12:00;;;;;;;6.00;2.60;;;;;;;14.41;59.63;101040.19;5565588;32;34011;-55
2022/09/21 08:15:02;;;;;;;3.97;2.83;;;;;;;14.52;60.63;101039.00;5565180;32;33611;-56
2022/09/21 08:18:06;;;;;;;3.83;2.40;;;;;;;14.58;60.14;101040.53;5562994;32;34475;-56
2022/09/21 08:21:09;;;;;;;5.28;2.78;;;;;;;14.70;57.22;101045.47;5563871;32;33592;-56
2022/09/21 08:24:13;;;;;;;5.03;2.47;;;;;;;14.61;58.20;101041.84;5565285;32;33616;-56
2022/09/21 08:27:15;;;;;;;2.85;2.35;;;;;;;14.64;58.52;101036.69;5563672;32;34235;-56
2022/09/21 08:30:18;;;;;;;4.40;2.60;;;;;;;14.78;58.18;101039.44;5563165;32;34340;-55
2022/09/21 08:33:20;;;;;;;4.45;2.65;;;;;;;14.90;59.82;101042.53;5559831;32;34315;-56
2022/09/21 08:36:27;;;;;;;3.72;2.70;;;;;;;14.90;58.72;101045.22;5561042;32;33175;-56
2022/09/21 08:39:29;;;;;;;5.68;2.70;;;;;;;14.92;57.90;101045.72;5559572;32;33592;-56
2022/09/21 08:42:45;;;;;;;2.95;2.65;;;;;;;14.95;57.75;101047.03;5560065;32;33730;-56
2022/09/21 08:45:52;;;;;;;4.50;2.30;;;;;;;14.88;57.52;101054.69;5562781;32;34032;-56
2022/09/21 08:49:10;;;;;;;3.10;2.40;;;;;;;14.87;58.88;101058.50;5563625;32;33397;-56
2022/09/21 08:52:16;;;;;;;4.25;2.35;;;;;;;14.97;58.19;101052.94;5563156;32;33804;-56
2022/09/21 08:55:19;;;;;;;3.80;2.50;;;;;;;15.02;57.78;101052.84;5561273;32;33688;-56
2022/09/21 08:58:24;;;;;;;3.58;2.47;;;;;;;15.02;58.42;101055.56;5565494;32;34389;-56
2022/09/21 09:01:53;;;;;;;3.47;2.40;;;;;;;14.98;57.93;101058.03;5566442;32;33640;-56
2022/09/21 09:05:32;;;;;;;2.70;2.28;;;;;;;15.01;57.38;101043.97;5563566;31;33323;-56
2022/09/21 09:09:04;;;;;;;4.90;2.42;;;;;;;14.99;57.71;101050.75;5565782;32;33697;-56
2022/09/21 09:12:09;;;;;;;4.05;2.50;;;;;;;15.18;57.22;101048.03;5564969;32;33362;-56
2022/09/21 09:15:31;;;;;;;;;;;;;;;15.11;56.63;101053.81;5560043;32;35946;-56
2022/09/21 09:18:55;;;;;;;3.85;2.37;;;;;;;15.04;56.79;101048.78;5560886;32;33765;-56
2022/09/21 09:22:03;;;;;;;4.90;2.78;;;;;;;14.99;56.50;101043.44;5556993;32;33843;-56
2022/09/21 09:25:19;;;;;;;3.53;2.28;;;;;;;15.02;57.60;101042.84;5555986;32;33625;-56
2022/09/21 09:28:35;;;;;;;5.87;2.37;;;;;;;15.08;57.13;101043.59;5559324;32;33342;-56
2022/09/21 09:31:39;;;;;;;3.97;2.42;;;;;;;15.18;56.70;101050.72;5558250;32;33184;-56
2022/09/21 09:34:52;;;;;;;5.97;2.53;;;;;;;15.21;57.11;101031.22;5563432;32;32452;-56
2022/09/21 09:38:33;;;;;;;5.68;2.60;;;;;;;15.31;58.28;101049.19;5565999;32;33472;-56
2022/09/21 09:42:12;;;;;;;3.00;2.37;;;;;;;15.25;58.18;101049.25;5562963;32;33713;-55
2022/09/21 09:45:30;;;;;;;2.83;2.30;;;;;;;15.33;56.54;101042.38;5556691;32;33733;-56
2022/09/21 09:49:23;;;;;;;3.53;2.12;;;;;;;15.35;57.78;101042.06;5565794;32;33634;-56
2022/09/21 09:52:25;;;;;;;2.87;2.40;;;;;;;15.38;55.76;101049.59;5511177;31;34413;-56
2022/09/21 09:55:36;;;;;;;3.85;2.30;;;;;;;15.35;56.40;101045.56;5563618;32;33732;-56
2022/09/21 09:59:05;;;;;;;2.08;1.80;;;;;;;15.33;57.02;101045.09;5560694;32;33473;-56
2022/09/21 10:02:16;;;;;;;3.10;2.25;;;;;;;15.36;55.83;101049.88;5565649;32;33697;-56
2022/09/21 10:05:28;;;;;;;4.90;2.47;;;;;;;15.34;55.78;101046.69;5564630;32;33740;-56
2022/09/21 10:08:45;;;;;;;4.07;2.25;;;;;;;15.43;56.25;101054.91;5566969;32;33877;-55
2022/09/21 10:11:47;;;;;;;2.90;2.30;;;;;;;15.35;55.91;101042.88;5564813;32;33395;-56
2022/09/21 10:14:52;;;;;;;2.58;2.20;;;;;;;15.43;56.80;101034.09;5567232;32;34380;-56
2022/09/21 10:18:14;;;;;;;2.90;2.25;;;;;;;15.51;54.81;101035.31;5563879;32;33619;-56
2022/09/21 10:21:16;;;;;;;3.00;2.15;;;;;;;15.50;55.26;101037.22;5570524;31;33242;-56
2022/09/21 10:24:39;;;;;;;2.42;1.90;;;;;;;15.54;55.31;101039.34;5563269;32;34067;-56
2022/09/21 10:27:44;;;;;;;2.58;1.90;;;;;;;15.60;54.92;101041.66;5563448;32;33885;-55
2022/09/21 10:30:47;;;;;;;3.75;2.17;;;;;;;15.37;55.59;101038.00;5564973;32;33654;-56
2022/09/21 10:34:03;;;;;;;4.20;2.10;;;;;;;15.41;56.39;101020.09;5565454;32;34376;-56
2022/09/21 10:37:30;;;;;;;2.90;2.03;;;;;;;15.52;54.41;101021.50;5564877;32;33673;-56
2022/09/21 10:40:35;;;;;;;2.90;2.12;;;;;;;15.73;56.52;101026.59;5566436;32;33333;-56
2022/09/21 10:43:44;;;;;;;4.10;2.10;;;;;;;15.82;54.67;101032.88;5568076;32;34476;-56
2022/09/21 10:46:48;;;;;;;2.92;2.28;;;;;;;15.94;58.49;101021.59;5567929;32;33286;-56
2022/09/21 10:49:54;;;;;;;3.17;2.42;;;;;;;16.09;54.08;101034.81;5567090;32;33825;-57
2022/09/21 10:53:09;;;;;;;3.87;2.20;;;;;;;16.08;54.96;101026.97;5566677;32;33533;-56
2022/09/21 10:56:11;;;;;;;2.78;2.10;;;;;;;15.98;55.61;101022.56;5566221;32;33739;-55
2022/09/21 10:59:20;;;;;;;;;;;;;;;16.05;54.74;101022.97;5567576;32;33783;-56
2022/09/21 11:02:34;;;;;;;4.47;2.43;;;;;;;16.12;55.63;101011.75;5566188;32;34408;-56
2022/09/21 11:05:40;;;;;;;2.42;1.80;;;;;;;16.26;55.25;101012.56;5562105;32;33679;-56
2022/09/21 11:09:03;;;;;;;3.95;2.00;;;;;;;16.35;52.46;101020.75;5565241;32;34823;-55
2022/09/21 11:12:33;;;;;;;1.70;1.60;;;;;;;16.15;53.11;101011.94;5564234;32;33876;-56
2022/09/21 11:16:14;;;;;;;1.87;1.77;;;;;;;16.06;53.63;101005.66;5558385;32;33642;-56
2022/09/21 11:19:31;;;;;;;2.65;1.70;;;;;;;16.10;54.50;100998.53;5561652;32;33865;-55
2022/09/21 11:22:51;;;;;;;2.45;1.52;;;;;;;16.26;53.58;100999.03;5565756;32;34034;-56
2022/09/21 11:26:11;;;;;;;2.17;1.73;;;;;;;16.42;52.47;100994.91;5566640;32;33685;-56
2022/09/21 11:29:29;;;;;;;2.42;1.50;;;;;;;16.55;51.07;100998.66;5553753;32;33825;-56
2022/09/21 11:33:05;;;;;;;2.80;1.40;;;;;;;16.57;51.21;100992.94;5566754;32;33392;-56
2022/09/21 11:36:28;;;;;;;2.50;1.40;;;;;;;16.54;51.78;100983.53;5566866;32;33803;-56
2022/09/21 11:39:45;;;;;;;2.53;1.50;;;;;;;16.48;53.27;100986.66;5564039;32;33656;-56
2022/09/21 11:43:09;;;;;;;2.92;1.70;;;;;;;16.30;51.03;100985.69;5560119;32;33590;-55
2022/09/21 11:46:24;;;;;;;3.87;1.75;;;;;;;16.36;52.53;100979.87;5567651;32;34532;-56
2022/09/21 11:49:55;;;;;;;6.13;1.63;;;;;;;16.27;52.18;100983.59;5552661;32;34470;-56
2022/09/21 11:53:50;;;;;;;3.08;1.50;;;;;;;16.19;52.16;100971.56;5564674;32;33957;-56
2022/09/21 11:57:08;;;;;;;5.53;1.70;;;;;;;16.32;51.62;100961.81;5530710;32;34453;-56
2022/09/21 12:00:20;;;;;;;1.45;1.30;;;;;;;16.55;49.73;100968.87;5562048;32;33801;-56
2022/09/21 12:03:50;;;;;;;1.33;1.20;;;;;;;16.52;48.74;100958.66;5566747;32;33871;-56
2022/09/21 12:07:05;;;;;;;1.33;1.23;;;;;;;16.40;50.67;100959.22;5564897;32;34396;-57
2022/09/21 12:10:32;;;;;;;3.15;1.20;;;;;;;16.37;49.83;100956.31;5564456;32;33729;-56
2022/09/21 12:13:43;;;;;;;1.30;1.00;;;;;;;16.40;49.14;100958.41;5551555;32;33894;-56
2022/09/21 12:17:23;;;;;;;1.48;1.20;;;;;;;16.48;47.58;100956.88;5553638;32;33861;-56
2022/09/21 12:20:44;;;;;;;2.33;1.45;;;;;;;16.37;48.55;100954.41;5558637;32;33813;-56
2022/09/21 12:23:55;;;;;;;2.45;1.05;;;;;;;16.51;49.27;100946.25;5563194;32;33195;-55
2022/09/21 12:27:02;;;;;;;3.03;1.50;;;;;;;16.52;48.60;100944.31;5558450;32;33660;-56
2022/09/21 12:30:15;;;;;;;4.18;1.20;;;;;;;16.58;50.59;100943.09;5554754;32;34375;-56
2022/09/21 12:33:45;;;;;;;2.12;1.30;;;;;;;16.57;47.24;100945.03;5550241;32;33565;-56
2022/09/21 12:36:55;;;;;;;1.77;1.30;;;;;;;16.49;47.32;100934.94;5550301;32;34309;-56
2022/09/21 12:40:21;;;;;;;1.25;1.15;;;;;;;16.48;47.79;100936.03;5550254;32;34390;-56
2022/09/21 12:43:59;;;;;;;3.47;1.60;;;;;;;16.54;47.02;100934.00;5550278;32;33765;-56
2022/09/21 12:47:10;;;;;;;2.72;1.50;;;;;;;16.53;49.01;100937.84;5549912;32;33792;-56
2022/09/21 12:50:28;;;;;;;2.17;1.58;;;;;;;16.52;50.11;100937.00;5549986;32;33777;-56
2022/09/21 12:53:33;;;;;;;5.57;0.98;;;;;;;16.77;49.48;100954.59;5549963;32;33687;-56
2022/09/21 12:57:02;;;;;;;1.37;0.90;;;;;;;16.60;47.15;100946.31;5549918;32;34495;-56
2022/09/21 13:00:33;;;;;;;1.23;0.93;;;;;;;16.39;48.04;100945.97;5550144;32;34061;-56
2022/09/21 13:03:54;;;;;;;2.05;0.90;;;;;;;16.43;49.06;100945.06;5558789;32;34364;-55
2022/09/21 13:07:09;;;;;;;1.30;1.20;;;;;;;16.39;47.72;100946.78;5558421;32;34052;-56
2022/09/21 13:10:26;;;;;;;1.83;0.80;;;;;;;16.40;49.67;100936.78;5565266;32;34524;-56
2022/09/21 13:13:33;;;;;;;1.85;1.02;;;;;;;16.49;49.34;100928.69;5559994;32;34377;-56
2022/09/21 13:16:38;;;;;;;1.70;1.10;;;;;;;16.51;49.39;100926.50;5569093;32;33604;-56
2022/09/21 13:19:40;;;;;;;1.45;1.10;;;;;;;16.67;49.46;100925.81;5569547;32;33628;-56
2022/09/21 13:22:44;;;;;;;2.03;1.12;;;;;;;16.67;51.51;100925.81;5569126;32;34427;-57
2022/09/21 13:25:59;;;;;;;1.20;1.05;;;;;;;16.76;50.33;100923.22;5567888;32;33781;-56
2022/09/21 13:29:12;;;;;;;3.42;1.30;;;;;;;16.76;51.13;100923.22;5567679;32;33712;-56
2022/09/21 13:32:17;;;;;;;1.95;1.45;;;;;;;16.88;49.71;100919.94;5568461;32;33487;-56
2022/09/21 13:36:02;;;;;;;2.63;1.13;;;;;;;16.98;51.42;100930.50;5568683;32;33748;-56
2022/09/21 13:39:07;;;;;;;1.33;1.10;;;;;;;16.88;48.32;100925.34;5540766;32;33914;-56
2022/09/21 13:42:31;;;;;;;3.35;1.50;;;;;;;16.75;49.28;100932.44;5567684;32;33564;-56
2022/09/21 13:45:34;;;;;;;4.32;2.10;;;;;;;16.85;48.32;100921.37;5562031;32;34462;-56
2022/09/21 13:48:37;;;;;;;2.60;1.70;;;;;;;16.92;48.66;100915.53;5562694;32;33671;-55
2022/09/21 13:52:06;;;;;;;3.17;1.30;;;;;;;16.95;48.19;100905.97;5549736;32;33929;-56
2022/09/21 13:55:28;;;;;;;2.72;1.10;;;;;;;17.02;48.42;100909.84;5553062;32;33669;-56
2022/09/21 13:58:34;;;;;;;2.60;1.00;;;;;;;17.05;48.24;100911.94;5553187;32;33756;-56
2022/09/21 14:01:38;;;;;;;3.53;1.10;;;;;;;17.07;49.81;100911.63;5558257;32;33723;-56
2022/09/21 14:04:51;;;;;;;1.25;1.00;;;;;;;17.20;47.20;100918.06;5567827;32;34240;-56
2022/09/21 14:08:00;;;;;;;1.42;1.00;;;;;;;17.20;47.45;100910.72;5566694;32;33730;-56
2022/09/21 14:11:09;;;;;;;7.10;1.10;;;;;;;17.28;44.70;100930.84;5568141;32;33946;-56
2022/09/21 14:14:26;;;;;;;2.75;1.00;;;;;;;17.05;44.61;100930.91;5567598;32;33689;-56
2022/09/21 14:17:39;;;;;;;1.58;1.12;;;;;;;17.06;46.36;100915.44;5567770;32;33696;-56
2022/09/21 14:21:15;;;;;;;1.00;0.90;;;;;;;17.07;46.45;100917.03;5567817;32;34343;-56
2022/09/21 14:24:21;;;;;;;1.80;1.10;;;;;;;16.96;45.17;100921.91;5567126;32;33656;-56
2022/09/21 14:27:43;;;;;;;1.65;1.12;;;;;;;16.90;47.23;100917.72;5568277;32;33560;-55
2022/09/21 14:30:53;;;;;;;5.37;1.10;;;;;;;16.78;48.37;100915.56;5568604;32;34528;-56
2022/09/21 14:33:58;;;;;;;1.35;1.12;;;;;;;16.78;46.57;100923.69;5568901;32;33661;-56
2022/09/21 14:37:19;;;;;;;1.73;1.15;;;;;;;16.72;46.85;100921.37;5568070;32;34367;-56
2022/09/21 14:40:31;;;;;;;1.62;0.95;;;;;;;16.68;46.90;100921.22;5548471;32;33720;-56
2022/09/21 14:43:36;;;;;;;2.58;1.25;;;;;;;16.71;46.47;100919.81;5563752;32;34409;-56
2022/09/21 14:46:52;;;;;;;1.02;0.93;;;;;;;16.77;47.36;100918.59;5569014;32;33254;-56
2022/09/21 14:50:02;;;;;;;0.98;0.88;;;;;;;16.78;46.37;100914.78;5568472;32;33668;-56
2022/09/21 14:53:26;;;;;;;1.52;1.33;;;;;;;16.80;46.42;100909.88;5566179;32;34357;-57
2022/09/21 14:56:39;;;;;;;1.85;1.17;;;;;;;16.79;45.87;100911.78;5569024;32;34363;-56
2022/09/21 14:59:46;;;;;;;1.35;1.08;;;;;;;16.73;46.76;100906.78;5562832;32;33985;-56
2022/09/21 15:03:07;;;;;;;1.95;1.30;;;;;;;16.74;46.12;100908.34;5566171;32;33854;-55
2022/09/21 15:13:32;;;;;;;1.75;1.20;;;;;;;16.68;47.81;100907.66;5568035;32;33931;-56
2022/09/21 15:16:42;;;;;;;2.67;1.40;;;;;;;16.70;48.09;100901.97;5566515;32;33603;-56
2022/09/21 15:19:45;;;;;;;1.52;1.10;;;;;;;16.72;49.58;100900.56;5559562;32;34613;-56
2022/09/21 15:22:52;;;;;;;3.37;1.20;;;;;;;16.80;48.29;100902.53;5568402;32;33599;-56
2022/09/21 15:26:01;;;;;;;;;;;;;;;16.77;47.85;100905.06;5567969;32;34250;-56
2022/09/21 15:29:06;;;;;;;4.57;1.30;;;;;;;16.68;48.71;100910.38;5568002;32;34718;-56
2022/09/21 15:32:23;;;;;;;2.20;1.37;;;;;;;16.67;50.52;100908.78;5566877;32;33638;-56
2022/09/21 15:35:31;;;;;;;2.15;1.33;;;;;;;16.63;47.17;100914.03;5567972;32;33689;-56
